sensor_id;sensor_type;location;lat;lon;timestamp;P1;durP1;ratioP1;P2;durP2;ratioP2
2888;SDS011;1453;42.708;23.282;2024-02-21T00:00:57;11.77;;;7.13;;
2888;SDS011;1453;42.708;23.282;2024-02-21T00:03:23;9.50;;;6.88;;
2888;SDS011;1453;42.708;23.282;2024-02-21T00:05:49;8.97;;;6.57;;
2888;SDS011;1453;42.708;23.282;2024-02-21T00:08:15;9.75;;;6.90;;
2888;SDS011;1453;42.708;23.282;2024-02-21T00:10:41;9.30;;;6.87;;
2888;SDS011;1453;42.708;23.282;2024-02-21T00:13:07;9.77;;;6.93;;
2888;SDS011;1453;42.708;23.282;2024-02-21T00:15:33;10.03;;;7.27;;
2888;SDS011;1453;42.708;23.282;2024-02-21T00:17:59;7.60;;;6.70;;
2888;SDS011;1453;42.708;23.282;2024-02-21T00:20:25;9.47;;;7.17;;
2888;SDS011;1453;42.708;23.282;2024-02-21T00:22:51;10.57;;;7.28;;
2888;SDS011;1453;42.708;23.282;2024-02-21T00:25:17;10.70;;;7.50;;
2888;SDS011;1453;42.708;23.282;2024-02-21T00:27:43;7.70;;;6.43;;
2888;SDS011;1453;42.708;23.282;2024-02-21T00:30:09;10.17;;;6.73;;
2888;SDS011;1453;42.708;23.282;2024-02-21T00:32:36;10.60;;;7.20;;
2888;SDS011;1453;42.708;23.282;2024-02-21T00:35:02;10.73;;;7.90;;
2888;SDS011;1453;42.708;23.282;2024-02-21T00:37:28;10.73;;;7.30;;
2888;SDS011;1453;42.708;23.282;2024-02-21T00:39:54;9.23;;;6.40;;
2888;SDS011;1453;42.708;23.282;2024-02-21T00:42:20;9.45;;;6.50;;
2888;SDS011;1453;42.708;23.282;2024-02-21T00:44:46;11.70;;;7.10;;
2888;SDS011;1453;42.708;23.282;2024-02-21T00:47:12;10.00;;;7.75;;
2888;SDS011;1453;42.708;23.282;2024-02-21T00:49:38;9.27;;;6.60;;
2888;SDS011;1453;42.708;23.282;2024-02-21T00:52:04;10.97;;;7.67;;
2888;SDS011;1453;42.708;23.282;2024-02-21T00:54:30;9.67;;;6.93;;
2888;SDS011;1453;42.708;23.282;2024-02-21T00:56:56;7.07;;;6.30;;
2888;SDS011;1453;42.708;23.282;2024-02-21T00:59:21;9.47;;;6.13;;
2888;SDS011;1453;42.708;23.282;2024-02-21T01:01:47;10.53;;;7.13;;
2888;SDS011;1453;42.708;23.282;2024-02-21T01:04:13;8.90;;;7.20;;
2888;SDS011;1453;42.708;23.282;2024-02-21T01:06:39;8.53;;;6.90;;
2888;SDS011;1453;42.708;23.282;2024-02-21T01:09:08;12.00;;;8.45;;
2888;SDS011;1453;42.708;23.282;2024-02-21T01:11:34;9.55;;;6.90;;
2888;SDS011;1453;42.708;23.282;2024-02-21T01:13:59;8.93;;;6.97;;
2888;SDS011;1453;42.708;23.282;2024-02-21T01:16:25;14.77;;;10.10;;
2888;SDS011;1453;42.708;23.282;2024-02-21T01:18:51;11.55;;;8.48;;
2888;SDS011;1453;42.708;23.282;2024-02-21T01:21:17;11.70;;;7.73;;
2888;SDS011;1453;42.708;23.282;2024-02-21T01:23:43;11.30;;;8.15;;
2888;SDS011;1453;42.708;23.282;2024-02-21T01:26:09;12.13;;;8.20;;
2888;SDS011;1453;42.708;23.282;2024-02-21T01:28:38;11.70;;;8.15;;
2888;SDS011;1453;42.708;23.282;2024-02-21T01:31:05;10.00;;;8.05;;
2888;SDS011;1453;42.708;23.282;2024-02-21T01:33:31;8.97;;;7.53;;
2888;SDS011;1453;42.708;23.282;2024-02-21T01:36:02;11.63;;;8.48;;
2888;SDS011;1453;42.708;23.282;2024-02-21T01:38:29;12.52;;;9.23;;
2888;SDS011;1453;42.708;23.282;2024-02-21T01:40:57;9.77;;;7.32;;
2888;SDS011;1453;42.708;23.282;2024-02-21T01:43:23;16.50;;;9.87;;
2888;SDS011;1453;42.708;23.282;2024-02-21T01:45:49;17.48;;;10.98;;
2888;SDS011;1453;42.708;23.282;2024-02-21T01:48:18;25.45;;;15.30;;
2888;SDS011;1453;42.708;23.282;2024-02-21T01:50:45;9.43;;;6.88;;
2888;SDS011;1453;42.708;23.282;2024-02-21T01:53:22;9.27;;;6.85;;
2888;SDS011;1453;42.708;23.282;2024-02-21T01:55:52;8.90;;;6.53;;
2888;SDS011;1453;42.708;23.282;2024-02-21T01:58:18;9.55;;;7.38;;
2888;SDS011;1453;42.708;23.282;2024-02-21T02:00:45;7.60;;;6.00;;
2888;SDS011;1453;42.708;23.282;2024-02-21T02:03:13;9.98;;;7.40;;
2888;SDS011;1453;42.708;23.282;2024-02-21T02:05:45;10.63;;;7.10;;
2888;SDS011;1453;42.708;23.282;2024-02-21T02:08:15;10.25;;;7.75;;
2888;SDS011;1453;42.708;23.282;2024-02-21T02:10:42;10.73;;;7.65;;
2888;SDS011;1453;42.708;23.282;2024-02-21T02:13:09;10.77;;;7.07;;
2888;SDS011;1453;42.708;23.282;2024-02-21T02:15:42;11.23;;;7.57;;
2888;SDS011;1453;42.708;23.282;2024-02-21T02:18:13;13.23;;;7.88;;
2888;SDS011;1453;42.708;23.282;2024-02-21T02:20:41;12.82;;;7.70;;
2888;SDS011;1453;42.708;23.282;2024-02-21T02:23:51;9.88;;;7.45;;
2888;SDS011;1453;42.708;23.282;2024-02-21T02:25:58;12.18;;;8.50;;
2888;SDS011;1453;42.708;23.282;2024-02-21T02:28:26;13.43;;;8.57;;
2888;SDS011;1453;42.708;23.282;2024-02-21T02:30:52;15.00;;;8.25;;
2888;SDS011;1453;42.708;23.282;2024-02-21T02:33:18;12.87;;;9.30;;
2888;SDS011;1453;42.708;23.282;2024-02-21T02:35:44;12.20;;;8.40;;
2888;SDS011;1453;42.708;23.282;2024-02-21T02:38:10;12.75;;;8.35;;
2888;SDS011;1453;42.708;23.282;2024-02-21T02:40:38;10.60;;;8.23;;
2888;SDS011;1453;42.708;23.282;2024-02-21T02:43:08;13.80;;;8.65;;
2888;SDS011;1453;42.708;23.282;2024-02-21T02:45:34;14.20;;;9.20;;
2888;SDS011;1453;42.708;23.282;2024-02-21T02:48:02;14.23;;;10.20;;
2888;SDS011;1453;42.708;23.282;2024-02-21T02:50:29;12.57;;;9.20;;
2888;SDS011;1453;42.708;23.282;2024-02-21T02:52:56;15.13;;;10.02;;
2888;SDS011;1453;42.708;23.282;2024-02-21T02:55:22;13.02;;;9.57;;
2888;SDS011;1453;42.708;23.282;2024-02-21T02:57:48;15.23;;;9.88;;
2888;SDS011;1453;42.708;23.282;2024-02-21T03:00:14;15.75;;;10.48;;
2888;SDS011;1453;42.708;23.282;2024-02-21T03:02:42;15.18;;;10.52;;
2888;SDS011;1453;42.708;23.282;2024-02-21T03:05:12;14.95;;;10.32;;
2888;SDS011;1453;42.708;23.282;2024-02-21T03:07:45;16.42;;;11.07;;
2888;SDS011;1453;42.708;23.282;2024-02-21T03:10:12;16.17;;;10.48;;
2888;SDS011;1453;42.708;23.282;2024-02-21T03:12:38;13.68;;;10.35;;
2888;SDS011;1453;42.708;23.282;2024-02-21T03:15:05;16.05;;;11.38;;
2888;SDS011;1453;42.708;23.282;2024-02-21T03:17:32;14.45;;;10.63;;
2888;SDS011;1453;42.708;23.282;2024-02-21T03:20:01;17.50;;;10.15;;
2888;SDS011;1453;42.708;23.282;2024-02-21T03:22:34;15.13;;;10.93;;
2888;SDS011;1453;42.708;23.282;2024-02-21T03:25:00;14.13;;;9.63;;
2888;SDS011;1453;42.708;23.282;2024-02-21T03:27:26;20.23;;;11.20;;
2888;SDS011;1453;42.708;23.282;2024-02-21T03:29:52;14.30;;;10.23;;
2888;SDS011;1453;42.708;23.282;2024-02-21T03:32:18;15.20;;;9.90;;
2888;SDS011;1453;42.708;23.282;2024-02-21T03:34:43;14.77;;;9.73;;
2888;SDS011;1453;42.708;23.282;2024-02-21T03:37:09;13.43;;;9.10;;
2888;SDS011;1453;42.708;23.282;2024-02-21T03:39:35;13.63;;;9.63;;
2888;SDS011;1453;42.708;23.282;2024-02-21T03:42:02;13.70;;;9.20;;
2888;SDS011;1453;42.708;23.282;2024-02-21T03:44:30;13.48;;;9.63;;
2888;SDS011;1453;42.708;23.282;2024-02-21T03:46:57;14.57;;;10.43;;
2888;SDS011;1453;42.708;23.282;2024-02-21T03:49:24;15.10;;;10.00;;
2888;SDS011;1453;42.708;23.282;2024-02-21T03:51:50;13.70;;;9.83;;
2888;SDS011;1453;42.708;23.282;2024-02-21T03:54:16;15.97;;;12.13;;
2888;SDS011;1453;42.708;23.282;2024-02-21T03:56:41;17.53;;;10.13;;
2888;SDS011;1453;42.708;23.282;2024-02-21T03:59:07;15.70;;;10.80;;
2888;SDS011;1453;42.708;23.282;2024-02-21T04:01:34;14.18;;;9.50;;
2888;SDS011;1453;42.708;23.282;2024-02-21T04:04:01;15.18;;;10.32;;
2888;SDS011;1453;42.708;23.282;2024-02-21T04:06:27;18.20;;;10.95;;
2888;SDS011;1453;42.708;23.282;2024-02-21T04:08:53;18.38;;;11.20;;
2888;SDS011;1453;42.708;23.282;2024-02-21T04:11:19;15.50;;;10.10;;
2888;SDS011;1453;42.708;23.282;2024-02-21T04:13:45;15.32;;;10.73;;
2888;SDS011;1453;42.708;23.282;2024-02-21T04:16:13;18.23;;;11.63;;
2888;SDS011;1453;42.708;23.282;2024-02-21T04:18:40;17.10;;;11.07;;
2888;SDS011;1453;42.708;23.282;2024-02-21T04:21:09;17.80;;;11.60;;
2888;SDS011;1453;42.708;23.282;2024-02-21T04:23:36;14.18;;;9.60;;
2888;SDS011;1453;42.708;23.282;2024-02-21T04:26:02;15.07;;;10.13;;
2888;SDS011;1453;42.708;23.282;2024-02-21T04:28:28;14.40;;;9.73;;
2888;SDS011;1453;42.708;23.282;2024-02-21T04:30:54;16.43;;;11.43;;
2888;SDS011;1453;42.708;23.282;2024-02-21T04:33:22;17.63;;;11.67;;
2888;SDS011;1453;42.708;23.282;2024-02-21T04:35:48;16.90;;;11.68;;
2888;SDS011;1453;42.708;23.282;2024-02-21T04:38:14;26.27;;;17.13;;
2888;SDS011;1453;42.708;23.282;2024-02-21T04:40:40;17.00;;;11.60;;
2888;SDS011;1453;42.708;23.282;2024-02-21T04:43:09;18.48;;;12.45;;
2888;SDS011;1453;42.708;23.282;2024-02-21T04:45:38;20.63;;;13.73;;
2888;SDS011;1453;42.708;23.282;2024-02-21T04:48:04;25.80;;;14.60;;
2888;SDS011;1453;42.708;23.282;2024-02-21T04:50:30;18.90;;;12.70;;
2888;SDS011;1453;42.708;23.282;2024-02-21T04:52:56;19.10;;;13.73;;
2888;SDS011;1453;42.708;23.282;2024-02-21T04:55:21;20.20;;;12.90;;
2888;SDS011;1453;42.708;23.282;2024-02-21T04:57:47;20.77;;;13.17;;
2888;SDS011;1453;42.708;23.282;2024-02-21T05:00:13;19.67;;;13.20;;
2888;SDS011;1453;42.708;23.282;2024-02-21T05:02:40;18.75;;;12.75;;
2888;SDS011;1453;42.708;23.282;2024-02-21T05:05:06;21.60;;;14.00;;
2888;SDS011;1453;42.708;23.282;2024-02-21T05:07:32;23.15;;;14.40;;
2888;SDS011;1453;42.708;23.282;2024-02-21T05:10:00;23.02;;;13.45;;
2888;SDS011;1453;42.708;23.282;2024-02-21T05:12:26;19.23;;;12.63;;
2888;SDS011;1453;42.708;23.282;2024-02-21T05:14:52;21.53;;;13.47;;
2888;SDS011;1453;42.708;23.282;2024-02-21T05:17:18;21.13;;;13.57;;
2888;SDS011;1453;42.708;23.282;2024-02-21T05:19:44;20.93;;;13.50;;
2888;SDS011;1453;42.708;23.282;2024-02-21T05:22:09;19.43;;;13.53;;
2888;SDS011;1453;42.708;23.282;2024-02-21T05:24:36;19.08;;;13.35;;
2888;SDS011;1453;42.708;23.282;2024-02-21T05:27:05;21.45;;;14.43;;
2888;SDS011;1453;42.708;23.282;2024-02-21T05:29:31;23.53;;;14.30;;
2888;SDS011;1453;42.708;23.282;2024-02-21T05:31:58;22.50;;;15.23;;
2888;SDS011;1453;42.708;23.282;2024-02-21T05:34:24;22.27;;;13.88;;
2888;SDS011;1453;42.708;23.282;2024-02-21T05:36:51;24.13;;;14.15;;
2888;SDS011;1453;42.708;23.282;2024-02-21T05:39:17;22.13;;;13.80;;
2888;SDS011;1453;42.708;23.282;2024-02-21T05:41:43;19.42;;;13.68;;
2888;SDS011;1453;42.708;23.282;2024-02-21T05:44:10;22.83;;;14.10;;
2888;SDS011;1453;42.708;23.282;2024-02-21T05:46:36;17.92;;;13.35;;
2888;SDS011;1453;42.708;23.282;2024-02-21T05:49:02;19.67;;;13.43;;
2888;SDS011;1453;42.708;23.282;2024-02-21T05:51:32;22.67;;;13.77;;
2888;SDS011;1453;42.708;23.282;2024-02-21T05:53:58;19.85;;;14.13;;
2888;SDS011;1453;42.708;23.282;2024-02-21T05:56:25;19.75;;;13.63;;
2888;SDS011;1453;42.708;23.282;2024-02-21T05:58:51;18.38;;;12.77;;
2888;SDS011;1453;42.708;23.282;2024-02-21T06:01:17;20.87;;;13.57;;
2888;SDS011;1453;42.708;23.282;2024-02-21T06:03:43;20.77;;;13.53;;
2888;SDS011;1453;42.708;23.282;2024-02-21T06:06:09;16.73;;;12.82;;
2888;SDS011;1453;42.708;23.282;2024-02-21T06:08:35;21.60;;;12.90;;
2888;SDS011;1453;42.708;23.282;2024-02-21T06:11:01;21.10;;;13.63;;
2888;SDS011;1453;42.708;23.282;2024-02-21T06:13:27;19.50;;;13.37;;
2888;SDS011;1453;42.708;23.282;2024-02-21T06:15:53;18.50;;;12.13;;
2888;SDS011;1453;42.708;23.282;2024-02-21T06:18:19;21.90;;;12.63;;
2888;SDS011;1453;42.708;23.282;2024-02-21T06:20:46;23.02;;;14.98;;
2888;SDS011;1453;42.708;23.282;2024-02-21T06:23:13;19.58;;;13.82;;
2888;SDS011;1453;42.708;23.282;2024-02-21T06:25:41;23.50;;;13.98;;
2888;SDS011;1453;42.708;23.282;2024-02-21T06:28:07;20.75;;;13.85;;
2888;SDS011;1453;42.708;23.282;2024-02-21T06:30:33;17.48;;;12.45;;
2888;SDS011;1453;42.708;23.282;2024-02-21T06:33:00;18.37;;;12.70;;
2888;SDS011;1453;42.708;23.282;2024-02-21T06:35:27;17.83;;;13.50;;
2888;SDS011;1453;42.708;23.282;2024-02-21T06:37:54;17.13;;;12.93;;
2888;SDS011;1453;42.708;23.282;2024-02-21T06:40:21;15.97;;;11.83;;
2888;SDS011;1453;42.708;23.282;2024-02-21T06:42:48;15.40;;;12.57;;
2888;SDS011;1453;42.708;23.282;2024-02-21T06:45:15;16.33;;;11.67;;
2888;SDS011;1453;42.708;23.282;2024-02-21T06:47:42;19.80;;;13.90;;
2888;SDS011;1453;42.708;23.282;2024-02-21T06:50:08;15.17;;;12.20;;
2888;SDS011;1453;42.708;23.282;2024-02-21T06:52:35;18.43;;;12.73;;
2888;SDS011;1453;42.708;23.282;2024-02-21T06:55:01;14.77;;;11.93;;
2888;SDS011;1453;42.708;23.282;2024-02-21T06:57:31;18.70;;;12.67;;
2888;SDS011;1453;42.708;23.282;2024-02-21T06:59:56;19.53;;;12.50;;
2888;SDS011;1453;42.708;23.282;2024-02-21T07:02:22;16.50;;;13.17;;
2888;SDS011;1453;42.708;23.282;2024-02-21T07:04:48;17.00;;;13.63;;
2888;SDS011;1453;42.708;23.282;2024-02-21T07:07:15;17.70;;;14.00;;
2888;SDS011;1453;42.708;23.282;2024-02-21T07:09:40;18.07;;;13.77;;
2888;SDS011;1453;42.708;23.282;2024-02-21T07:12:06;21.10;;;13.43;;
2888;SDS011;1453;42.708;23.282;2024-02-21T07:14:33;19.77;;;14.03;;
2888;SDS011;1453;42.708;23.282;2024-02-21T07:16:58;21.03;;;15.47;;
2888;SDS011;1453;42.708;23.282;2024-02-21T07:19:24;17.50;;;12.97;;
2888;SDS011;1453;42.708;23.282;2024-02-21T07:21:50;22.47;;;13.87;;
2888;SDS011;1453;42.708;23.282;2024-02-21T07:24:16;17.77;;;13.63;;
2888;SDS011;1453;42.708;23.282;2024-02-21T07:26:42;19.00;;;13.40;;
2888;SDS011;1453;42.708;23.282;2024-02-21T07:29:09;17.50;;;13.68;;
2888;SDS011;1453;42.708;23.282;2024-02-21T07:31:42;22.95;;;12.13;;
2888;SDS011;1453;42.708;23.282;2024-02-21T07:34:12;16.63;;;12.13;;
2888;SDS011;1453;42.708;23.282;2024-02-21T07:36:40;20.43;;;14.57;;
2888;SDS011;1453;42.708;23.282;2024-02-21T07:39:07;17.77;;;12.98;;
2888;SDS011;1453;42.708;23.282;2024-02-21T07:41:33;22.47;;;14.50;;
2888;SDS011;1453;42.708;23.282;2024-02-21T07:43:59;20.40;;;14.80;;
2888;SDS011;1453;42.708;23.282;2024-02-21T07:46:25;23.65;;;14.88;;
2888;SDS011;1453;42.708;23.282;2024-02-21T07:48:51;20.10;;;13.83;;
2888;SDS011;1453;42.708;23.282;2024-02-21T07:51:17;18.23;;;13.83;;
2888;SDS011;1453;42.708;23.282;2024-02-21T07:53:44;21.10;;;13.43;;
2888;SDS011;1453;42.708;23.282;2024-02-21T07:56:14;20.57;;;15.27;;
2888;SDS011;1453;42.708;23.282;2024-02-21T07:58:41;25.47;;;14.80;;
2888;SDS011;1453;42.708;23.282;2024-02-21T08:01:07;19.90;;;13.00;;
2888;SDS011;1453;42.708;23.282;2024-02-21T08:03:33;23.73;;;15.10;;
2888;SDS011;1453;42.708;23.282;2024-02-21T08:06:00;20.33;;;14.70;;
2888;SDS011;1453;42.708;23.282;2024-02-21T08:08:27;21.33;;;15.47;;
2888;SDS011;1453;42.708;23.282;2024-02-21T08:10:53;21.90;;;15.00;;
2888;SDS011;1453;42.708;23.282;2024-02-21T08:13:19;21.90;;;14.13;;
2888;SDS011;1453;42.708;23.282;2024-02-21T08:15:45;24.10;;;15.83;;
2888;SDS011;1453;42.708;23.282;2024-02-21T08:18:11;21.73;;;15.10;;
2888;SDS011;1453;42.708;23.282;2024-02-21T08:20:37;19.43;;;13.70;;
2888;SDS011;1453;42.708;23.282;2024-02-21T08:23:03;21.83;;;15.80;;
2888;SDS011;1453;42.708;23.282;2024-02-21T08:25:29;19.17;;;13.43;;
2888;SDS011;1453;42.708;23.282;2024-02-21T08:27:57;18.70;;;13.57;;
2888;SDS011;1453;42.708;23.282;2024-02-21T08:30:24;17.87;;;13.80;;
2888;SDS011;1453;42.708;23.282;2024-02-21T08:32:50;20.17;;;14.30;;
2888;SDS011;1453;42.708;23.282;2024-02-21T08:35:16;17.03;;;13.87;;
2888;SDS011;1453;42.708;23.282;2024-02-21T08:37:47;18.60;;;14.00;;
2888;SDS011;1453;42.708;23.282;2024-02-21T08:40:13;18.37;;;14.00;;
2888;SDS011;1453;42.708;23.282;2024-02-21T08:42:42;18.50;;;13.23;;
2888;SDS011;1453;42.708;23.282;2024-02-21T08:45:09;18.27;;;14.13;;
2888;SDS011;1453;42.708;23.282;2024-02-21T08:47:36;17.70;;;12.67;;
2888;SDS011;1453;42.708;23.282;2024-02-21T08:50:04;17.77;;;13.77;;
2888;SDS011;1453;42.708;23.282;2024-02-21T08:52:31;18.13;;;13.73;;
2888;SDS011;1453;42.708;23.282;2024-02-21T08:54:57;19.60;;;15.20;;
2888;SDS011;1453;42.708;23.282;2024-02-21T08:57:23;15.77;;;13.40;;
2888;SDS011;1453;42.708;23.282;2024-02-21T08:59:49;18.40;;;13.00;;
2888;SDS011;1453;42.708;23.282;2024-02-21T09:02:15;18.50;;;13.87;;
2888;SDS011;1453;42.708;23.282;2024-02-21T09:04:44;16.63;;;13.63;;
2888;SDS011;1453;42.708;23.282;2024-02-21T09:07:10;17.43;;;13.13;;
2888;SDS011;1453;42.708;23.282;2024-02-21T09:09:36;17.30;;;13.30;;
2888;SDS011;1453;42.708;23.282;2024-02-21T09:12:06;21.47;;;14.70;;
2888;SDS011;1453;42.708;23.282;2024-02-21T09:14:32;19.23;;;14.83;;
2888;SDS011;1453;42.708;23.282;2024-02-21T09:16:59;18.80;;;14.73;;
2888;SDS011;1453;42.708;23.282;2024-02-21T09:19:25;18.93;;;14.70;;
2888;SDS011;1453;42.708;23.282;2024-02-21T09:21:51;19.60;;;14.13;;
2888;SDS011;1453;42.708;23.282;2024-02-21T09:24:17;23.00;;;13.93;;
2888;SDS011;1453;42.708;23.282;2024-02-21T09:26:43;16.70;;;13.00;;
2888;SDS011;1453;42.708;23.282;2024-02-21T09:29:09;18.60;;;14.43;;
2888;SDS011;1453;42.708;23.282;2024-02-21T09:31:35;21.23;;;15.70;;
2888;SDS011;1453;42.708;23.282;2024-02-21T09:34:01;17.87;;;13.57;;
2888;SDS011;1453;42.708;23.282;2024-02-21T09:36:27;19.90;;;14.13;;
2888;SDS011;1453;42.708;23.282;2024-02-21T09:38:53;18.00;;;12.83;;
2888;SDS011;1453;42.708;23.282;2024-02-21T09:41:25;17.57;;;13.80;;
2888;SDS011;1453;42.708;23.282;2024-02-21T09:43:54;19.02;;;13.30;;
2888;SDS011;1453;42.708;23.282;2024-02-21T09:46:30;16.77;;;13.27;;
2888;SDS011;1453;42.708;23.282;2024-02-21T09:51:59;17.03;;;12.63;;
2888;SDS011;1453;42.708;23.282;2024-02-21T09:54:30;17.80;;;12.17;;
2888;SDS011;1453;42.708;23.282;2024-02-21T09:56:57;14.90;;;11.90;;
2888;SDS011;1453;42.708;23.282;2024-02-21T09:59:23;14.50;;;11.73;;
2888;SDS011;1453;42.708;23.282;2024-02-21T10:01:50;13.80;;;11.97;;
2888;SDS011;1453;42.708;23.282;2024-02-21T10:04:16;13.20;;;11.80;;
2888;SDS011;1453;42.708;23.282;2024-02-21T10:06:43;13.67;;;12.23;;
2888;SDS011;1453;42.708;23.282;2024-02-21T10:09:19;12.20;;;11.00;;
2888;SDS011;1453;42.708;23.282;2024-02-21T10:12:07;11.80;;;10.57;;
2888;SDS011;1453;42.708;23.282;2024-02-21T10:14:35;12.60;;;11.30;;
2888;SDS011;1453;42.708;23.282;2024-02-21T10:17:00;12.53;;;10.20;;
2888;SDS011;1453;42.708;23.282;2024-02-21T10:19:27;11.80;;;10.70;;
2888;SDS011;1453;42.708;23.282;2024-02-21T10:22:01;9.87;;;8.87;;
2888;SDS011;1453;42.708;23.282;2024-02-21T10:24:33;11.53;;;10.43;;
2888;SDS011;1453;42.708;23.282;2024-02-21T10:27:03;11.70;;;10.50;;
2888;SDS011;1453;42.708;23.282;2024-02-21T10:29:34;13.30;;;11.37;;
2888;SDS011;1453;42.708;23.282;2024-02-21T10:32:04;12.13;;;10.83;;
2888;SDS011;1453;42.708;23.282;2024-02-21T10:34:32;11.70;;;10.60;;
2888;SDS011;1453;42.708;23.282;2024-02-21T10:37:02;11.17;;;10.07;;
2888;SDS011;1453;42.708;23.282;2024-02-21T10:39:29;10.50;;;9.60;;
2888;SDS011;1453;42.708;23.282;2024-02-21T10:42:03;10.73;;;9.63;;
2888;SDS011;1453;42.708;23.282;2024-02-21T10:44:33;10.37;;;9.37;;
2888;SDS011;1453;42.708;23.282;2024-02-21T10:47:05;10.77;;;9.77;;
2888;SDS011;1453;42.708;23.282;2024-02-21T10:49:37;9.77;;;8.93;;
2888;SDS011;1453;42.708;23.282;2024-02-21T10:55:20;9.90;;;9.10;;
2888;SDS011;1453;42.708;23.282;2024-02-21T10:57:56;9.77;;;8.90;;
2888;SDS011;1453;42.708;23.282;2024-02-21T11:00:23;10.40;;;9.50;;
2888;SDS011;1453;42.708;23.282;2024-02-21T11:02:56;9.10;;;8.30;;
2888;SDS011;1453;42.708;23.282;2024-02-21T11:05:24;11.93;;;8.87;;
2888;SDS011;1453;42.708;23.282;2024-02-21T11:07:50;8.77;;;8.07;;
2888;SDS011;1453;42.708;23.282;2024-02-21T11:10:20;8.07;;;7.37;;
2888;SDS011;1453;42.708;23.282;2024-02-21T11:12:49;9.33;;;8.53;;
2888;SDS011;1453;42.708;23.282;2024-02-21T11:15:34;8.17;;;7.47;;
2888;SDS011;1453;42.708;23.282;2024-02-21T11:17:59;8.23;;;7.57;;
2888;SDS011;1453;42.708;23.282;2024-02-21T11:20:35;7.97;;;7.37;;
2888;SDS011;1453;42.708;23.282;2024-02-21T11:23:02;8.77;;;8.00;;
2888;SDS011;1453;42.708;23.282;2024-02-21T11:25:29;9.20;;;8.50;;
2888;SDS011;1453;42.708;23.282;2024-02-21T11:28:07;10.37;;;8.53;;
2888;SDS011;1453;42.708;23.282;2024-02-21T11:30:36;8.90;;;8.20;;
2888;SDS011;1453;42.708;23.282;2024-02-21T11:33:03;9.07;;;8.20;;
2888;SDS011;1453;42.708;23.282;2024-02-21T11:35:34;8.93;;;7.93;;
2888;SDS011;1453;42.708;23.282;2024-02-21T11:38:14;9.13;;;8.40;;
2888;SDS011;1453;42.708;23.282;2024-02-21T11:40:41;8.93;;;8.13;;
2888;SDS011;1453;42.708;23.282;2024-02-21T11:43:10;8.77;;;7.87;;
2888;SDS011;1453;42.708;23.282;2024-02-21T11:45:36;9.13;;;8.40;;
2888;SDS011;1453;42.708;23.282;2024-02-21T11:48:05;9.10;;;8.30;;
2888;SDS011;1453;42.708;23.282;2024-02-21T11:50:32;9.60;;;8.60;;
2888;SDS011;1453;42.708;23.282;2024-02-21T11:53:00;8.50;;;7.83;;
2888;SDS011;1453;42.708;23.282;2024-02-21T11:55:26;9.57;;;8.70;;
2888;SDS011;1453;42.708;23.282;2024-02-21T11:57:51;10.57;;;9.50;;
2888;SDS011;1453;42.708;23.282;2024-02-21T12:00:18;9.33;;;8.43;;
2888;SDS011;1453;42.708;23.282;2024-02-21T12:02:45;9.30;;;8.40;;
2888;SDS011;1453;42.708;23.282;2024-02-21T12:05:11;12.10;;;9.20;;
2888;SDS011;1453;42.708;23.282;2024-02-21T12:07:38;9.73;;;8.73;;
2888;SDS011;1453;42.708;23.282;2024-02-21T12:10:11;9.23;;;8.33;;
2888;SDS011;1453;42.708;23.282;2024-02-21T12:12:38;8.87;;;8.07;;
2888;SDS011;1453;42.708;23.282;2024-02-21T12:15:05;9.67;;;8.67;;
2888;SDS011;1453;42.708;23.282;2024-02-21T12:17:33;9.53;;;8.20;;
2888;SDS011;1453;42.708;23.282;2024-02-21T12:20:00;8.90;;;8.10;;
2888;SDS011;1453;42.708;23.282;2024-02-21T12:22:30;9.50;;;8.53;;
2888;SDS011;1453;42.708;23.282;2024-02-21T12:24:59;10.10;;;8.27;;
2888;SDS011;1453;42.708;23.282;2024-02-21T12:27:28;8.70;;;7.90;;
2888;SDS011;1453;42.708;23.282;2024-02-21T12:29:55;9.93;;;8.90;;
2888;SDS011;1453;42.708;23.282;2024-02-21T12:32:20;8.73;;;7.83;;
2888;SDS011;1453;42.708;23.282;2024-02-21T12:34:46;10.27;;;8.23;;
2888;SDS011;1453;42.708;23.282;2024-02-21T12:37:12;10.27;;;9.13;;
2888;SDS011;1453;42.708;23.282;2024-02-21T12:39:38;9.93;;;8.73;;
2888;SDS011;1453;42.708;23.282;2024-02-21T12:42:04;10.50;;;9.50;;
2888;SDS011;1453;42.708;23.282;2024-02-21T12:44:30;12.97;;;9.80;;
2888;SDS011;1453;42.708;23.282;2024-02-21T12:46:56;11.67;;;10.47;;
2888;SDS011;1453;42.708;23.282;2024-02-21T12:49:22;11.70;;;10.60;;
2888;SDS011;1453;42.708;23.282;2024-02-21T12:51:49;12.00;;;10.70;;
2888;SDS011;1453;42.708;23.282;2024-02-21T12:54:15;11.67;;;10.47;;
2888;SDS011;1453;42.708;23.282;2024-02-21T12:56:41;11.87;;;10.73;;
2888;SDS011;1453;42.708;23.282;2024-02-21T12:59:07;13.00;;;10.37;;
2888;SDS011;1453;42.708;23.282;2024-02-21T13:01:36;11.07;;;9.90;;
2888;SDS011;1453;42.708;23.282;2024-02-21T13:04:05;10.23;;;9.23;;
2888;SDS011;1453;42.708;23.282;2024-02-21T13:06:31;13.40;;;9.70;;
2888;SDS011;1453;42.708;23.282;2024-02-21T13:08:57;13.23;;;10.97;;
2888;SDS011;1453;42.708;23.282;2024-02-21T13:11:24;11.10;;;10.00;;
2888;SDS011;1453;42.708;23.282;2024-02-21T13:13:52;13.07;;;11.33;;
2888;SDS011;1453;42.708;23.282;2024-02-21T13:16:18;12.43;;;9.30;;
2888;SDS011;1453;42.708;23.282;2024-02-21T13:18:44;12.40;;;9.53;;
2888;SDS011;1453;42.708;23.282;2024-02-21T13:21:12;11.57;;;10.40;;
2888;SDS011;1453;42.708;23.282;2024-02-21T13:23:38;14.30;;;9.50;;
2888;SDS011;1453;42.708;23.282;2024-02-21T13:26:05;12.67;;;9.70;;
2888;SDS011;1453;42.708;23.282;2024-02-21T13:28:31;10.67;;;9.67;;
2888;SDS011;1453;42.708;23.282;2024-02-21T13:30:57;10.50;;;8.57;;
2888;SDS011;1453;42.708;23.282;2024-02-21T13:33:23;12.03;;;9.30;;
2888;SDS011;1453;42.708;23.282;2024-02-21T13:35:49;9.90;;;8.90;;
2888;SDS011;1453;42.708;23.282;2024-02-21T13:38:14;9.40;;;8.53;;
2888;SDS011;1453;42.708;23.282;2024-02-21T13:40:40;9.03;;;8.13;;
2888;SDS011;1453;42.708;23.282;2024-02-21T13:43:07;10.13;;;9.00;;
2888;SDS011;1453;42.708;23.282;2024-02-21T13:45:33;9.80;;;8.80;;
2888;SDS011;1453;42.708;23.282;2024-02-21T13:47:59;11.53;;;10.30;;
2888;SDS011;1453;42.708;23.282;2024-02-21T13:50:29;10.93;;;9.27;;
2888;SDS011;1453;42.708;23.282;2024-02-21T13:53:06;11.13;;;9.13;;
2888;SDS011;1453;42.708;23.282;2024-02-21T13:55:33;10.13;;;9.13;;
2888;SDS011;1453;42.708;23.282;2024-02-21T13:57:58;9.53;;;8.50;;
2888;SDS011;1453;42.708;23.282;2024-02-21T14:00:24;11.63;;;9.50;;
2888;SDS011;1453;42.708;23.282;2024-02-21T14:02:52;11.47;;;9.90;;
2888;SDS011;1453;42.708;23.282;2024-02-21T14:05:19;10.63;;;9.53;;
2888;SDS011;1453;42.708;23.282;2024-02-21T14:07:45;9.90;;;8.90;;
2888;SDS011;1453;42.708;23.282;2024-02-21T14:10:11;11.00;;;8.20;;
2888;SDS011;1453;42.708;23.282;2024-02-21T14:12:37;9.40;;;8.50;;
2888;SDS011;1453;42.708;23.282;2024-02-21T14:15:03;11.10;;;8.70;;
2888;SDS011;1453;42.708;23.282;2024-02-21T14:17:30;11.90;;;9.07;;
2888;SDS011;1453;42.708;23.282;2024-02-21T14:19:56;11.40;;;8.67;;
2888;SDS011;1453;42.708;23.282;2024-02-21T14:22:22;11.00;;;9.33;;
2888;SDS011;1453;42.708;23.282;2024-02-21T14:24:48;10.33;;;9.20;;
2888;SDS011;1453;42.708;23.282;2024-02-21T14:27:13;9.90;;;8.63;;
2888;SDS011;1453;42.708;23.282;2024-02-21T14:29:39;10.67;;;9.53;;
2888;SDS011;1453;42.708;23.282;2024-02-21T14:32:05;11.23;;;10.03;;
2888;SDS011;1453;42.708;23.282;2024-02-21T14:34:32;11.30;;;9.63;;
2888;SDS011;1453;42.708;23.282;2024-02-21T14:36:58;10.10;;;9.00;;
2888;SDS011;1453;42.708;23.282;2024-02-21T14:39:24;11.70;;;9.50;;
2888;SDS011;1453;42.708;23.282;2024-02-21T14:41:49;14.53;;;10.57;;
2888;SDS011;1453;42.708;23.282;2024-02-21T14:44:15;8.93;;;8.03;;
2888;SDS011;1453;42.708;23.282;2024-02-21T14:46:41;10.30;;;9.30;;
2888;SDS011;1453;42.708;23.282;2024-02-21T14:49:07;12.50;;;8.60;;